logo
Search for airport 
image banner adimage banner adimage banner ad
image banner ad

LOBT - Tulln Lkh

Located in District Tulln, Austria

ICAO - , IATA -

Data provided by Airmate  

General information

Coordinates: N48°19'20" E16°3'54"
Elevation is 641 feet MSL.
 
View others Airports in Lower Austria

Operational data

Special qualification required
Current time UTC:
Current local time:
Weather at : LOXT - Tulln ( 4 km )
TAF: TAF LOXT 150815Z 1509/1518 26008KT 9999 SCT080 BKN100 TEMPO 1512/1518 26015G25KT SHRA FEW050CB BKN060 PROB40 TEMPO 1512/1518 TSRA
View NOTAMs / SUP AIP / TFR affecting this airport [VIEW]
Communications frequencies: [VIEW]

Runways:

Airport contact information

Address: District Tulln Austria

Satellite view of LOBT